98CO weather

Ncmc Heliport
Greeley, Colorado, United States

Public forecast

Using degrees Fahrenheit for public forecast. Weather courtesy of forecast.io.

METAR (pilot weather report)

Closest report is Greeley–Weld County Airport, 3.7 nm (6.8 km) ENE. Retrieved 2019/08/20 23:24 UTC (6 minutes ago):

KGXY 202324Z AUTO 07009G20KT 10SM 24/10 A3008 RMK AO2 LTG DSNT NE AND E TSE18 $

TAF (pilot weather forecast)

Closest forecast is Denver International Airport, 33.3 nm (61.6 km) S. Retrieved 2019/08/20 18:36 UTC (5 hours ago):

TAF KDEN 201732Z 2018/2124 04007KT P6SM FEW080 SCT120 SCT220 FM202300 11010KT P6SM SCT080 BKN150 TEMPO 2023/2103 VRB20G35KT -TSRA BKN080CB FM210300 16010KT P6SM VCSH SCT080 BKN120 FM210700 36010KT P6SM SCT050 BKN100 FM211100 02007KT P6SM SCT030 BKN100 TEMPO 2111/2115 3SM BR BKN020 FM211500 09010KT P6SM BKN050 BKN080 TEMPO 2122/2124 VRB20G35KT -TSRA BKN060CB